Time;durP1;ratioP1;P1;durP2;ratioP2;P2;SDS_P1;SDS_P2;PMS_P1;PMS_P2;Temp;Humidity;BMP_temperature;BMP_pressure;BME280_temperature;BME280_humidity;BME280_pressure;Samples;Min_cycle;Max_cycle;Signal;HPM_P1;HPM_P2
2023/06/24 00:01:51;;;;;;;0.45;0.45;;;15.90;99.90;;;;;;5093399;28;20459;-62
2023/06/24 00:04:20;;;;;;;;;;;15.70;99.90;;;;;;5093448;28;20520;-62
2023/06/24 00:06:46;;;;;;;1.17;0.73;;;15.60;99.90;;;;;;5093657;28;19930;-62
2023/06/24 00:09:11;;;;;;;;;;;16.00;99.90;;;;;;5093147;28;20044;-62
2023/06/24 00:11:37;;;;;;;0.40;0.40;;;15.60;99.90;;;;;;5093451;28;19938;-62
2023/06/24 00:14:03;;;;;;;;;;;15.60;99.90;;;;;;5092485;28;20044;-62
2023/06/24 00:16:29;;;;;;;0.40;0.40;;;15.90;99.90;;;;;;5093236;28;19931;-62
2023/06/24 00:18:58;;;;;;;;;;;15.50;99.90;;;;;;5093542;28;20063;-63
2023/06/24 00:21:29;;;;;;;1.27;0.82;;;15.50;99.90;;;;;;5091957;28;20666;-62
2023/06/24 00:24:04;;;;;;;0.40;0.40;;;15.70;99.90;;;;;;5093156;28;20058;-62
2023/06/24 00:26:30;;;;;;;0.68;0.68;;;15.50;99.90;;;;;;5093142;28;20158;-63
2023/06/24 00:28:55;;;;;;;1.17;0.65;;;15.50;99.90;;;;;;5093007;28;20048;-62
2023/06/24 00:31:21;;;;;;;0.95;0.95;;;15.60;99.90;;;;;;5092790;28;20135;-62
2023/06/24 00:33:47;;;;;;;0.50;0.50;;;15.80;99.90;;;;;;5093089;28;20044;-62
2023/06/24 00:36:13;;;;;;;3.67;1.60;;;15.60;99.90;;;;;;5092989;28;20055;-62
2023/06/24 00:38:39;;;;;;;;;;;15.30;99.90;;;;;;5093568;28;20047;-62
2023/06/24 00:41:05;;;;;;;1.05;1.05;;;15.40;99.90;;;;;;5093132;28;19927;-62
2023/06/24 00:43:31;;;;;;;0.30;0.30;;;15.60;99.90;;;;;;5092676;28;20048;-62
2023/06/24 00:45:57;;;;;;;0.45;0.45;;;15.30;99.90;;;;;;5092527;28;20054;-62
2023/06/24 00:48:24;;;;;;;0.47;0.47;;;15.30;99.90;;;;;;5092780;28;20048;-62
2023/06/24 00:50:50;;;;;;;0.50;0.50;;;15.40;99.90;;;;;;5092711;28;20444;-62
2023/06/24 00:53:20;;;;;;;;;;;15.80;99.90;;;;;;5093056;28;20052;-62
2023/06/24 00:55:46;;;;;;;0.85;0.77;;;15.40;99.90;;;;;;5092511;28;19924;-62
2023/06/24 00:58:16;;;;;;;1.85;0.57;;;15.40;99.90;;;;;;5092494;28;20427;-62
2023/06/24 01:00:46;;;;;;;0.52;0.52;;;15.80;99.90;;;;;;5092336;28;20460;-62
2023/06/24 01:03:16;;;;;;;0.65;0.65;;;15.30;99.90;;;;;;5092266;28;20055;-62
2023/06/24 01:05:43;;;;;;;0.47;0.32;;;15.10;99.90;;;;;;5092403;28;20044;-62
2023/06/24 01:08:09;;;;;;;1.08;0.55;;;15.60;99.90;;;;;;5092310;28;20506;-62
2023/06/24 01:10:35;;;;;;;0.63;0.63;;;15.20;99.90;;;;;;5092215;28;20063;-62
2023/06/24 01:13:01;;;;;;;0.45;0.43;;;15.60;99.90;;;;;;5092132;28;20051;-62
2023/06/24 01:15:28;;;;;;;;;;;15.60;99.90;;;;;;5092473;28;20048;-62
2023/06/24 01:18:37;;;;;;;2.90;0.85;;;15.00;99.90;;;;;;5092002;28;20368;-62
2023/06/24 01:21:33;;;;;;;0.35;0.35;;;15.10;99.90;;;;;;5090322;28;20415;-62
2023/06/24 01:24:27;;;;;;;0.93;0.73;;;15.70;99.90;;;;;;5091897;28;20387;-62
2023/06/24 01:27:22;;;;;;;0.30;0.30;;;15.40;99.90;;;;;;5091971;28;20427;-62
2023/06/24 01:30:37;;;;;;;0.20;0.20;;;15.10;99.90;;;;;;5091975;28;20048;-62
2023/06/24 01:33:08;;;;;;;0.40;0.40;;;14.90;99.90;;;;;;5080812;28;20052;-62
2023/06/24 01:35:35;;;;;;;0.65;0.65;;;15.20;99.90;;;;;;5091784;28;20101;-62
2023/06/24 01:38:08;;;;;;;0.65;0.50;;;15.00;99.90;;;;;;5091576;28;20052;-62
2023/06/24 01:40:40;;;;;;;0.20;0.20;;;14.70;99.90;;;;;;5091830;28;20135;-62
2023/06/24 01:43:08;;;;;;;0.80;0.70;;;15.00;99.90;;;;;;5091738;28;20052;-62
2023/06/24 01:45:42;;;;;;;0.20;0.20;;;14.90;99.90;;;;;;5091491;28;20052;-62
2023/06/24 01:48:18;;;;;;;0.30;0.30;;;15.00;99.90;;;;;;5091556;28;20105;-62
2023/06/24 01:51:11;;;;;;;1.27;0.75;;;15.50;99.90;;;;;;5091346;28;20052;-62
2023/06/24 01:53:48;;;;;;;0.43;0.43;;;15.30;99.90;;;;;;5088343;28;20051;-61
2023/06/24 01:56:15;;;;;;;1.40;1.05;;;14.70;99.90;;;;;;5091491;28;20076;-61
2023/06/24 01:58:43;;;;;;;1.10;0.85;;;15.10;99.90;;;;;;5091394;28;20058;-61
2023/06/24 02:01:10;;;;;;;0.30;0.30;;;15.40;99.90;;;;;;5091248;28;20071;-61
2023/06/24 02:03:36;;;;;;;0.75;0.75;;;15.00;99.90;;;;;;5091279;28;20095;-62
2023/06/24 02:06:04;;;;;;;0.65;0.65;;;15.30;99.90;;;;;;5091450;28;20083;-62
2023/06/24 02:08:34;;;;;;;0.77;0.73;;;15.20;99.90;;;;;;5091301;28;20051;-62
2023/06/24 02:11:01;;;;;;;0.52;0.52;;;14.70;99.90;;;;;;5091293;28;20495;-62
2023/06/24 02:13:28;;;;;;;0.63;0.63;;;17.00;99.90;;;;;;5091111;28;20126;-62
2023/06/24 02:15:55;;;;;;;0.50;0.50;;;15.40;99.90;;;;;;5091114;28;20058;-62
2023/06/24 02:18:23;;;;;;;0.80;0.47;;;15.00;99.90;;;;;;5091423;28;20074;-62
2023/06/24 02:20:50;;;;;;;0.65;0.65;;;15.20;99.90;;;;;;5091434;28;20063;-62
2023/06/24 02:23:16;;;;;;;0.55;0.55;;;15.40;99.90;;;;;;5091051;28;20410;-62
2023/06/24 02:25:43;;;;;;;0.35;0.35;;;14.80;99.90;;;;;;5091056;28;20056;-62
2023/06/24 02:28:10;;;;;;;0.80;0.52;;;14.60;99.90;;;;;;5091017;28;20185;-62
2023/06/24 02:30:37;;;;;;;0.40;0.40;;;15.20;99.90;;;;;;5091135;28;20052;-62
2023/06/24 02:33:03;;;;;;;0.88;0.63;;;15.40;99.90;;;;;;5094663;28;20047;-62
2023/06/24 02:35:29;;;;;;;;;;;14.70;99.90;;;;;;5095708;28;20669;-62
2023/06/24 02:37:55;;;;;;;0.40;0.40;;;15.20;99.90;;;;;;5095174;28;20014;-62
2023/06/24 02:40:20;;;;;;;;;;;14.90;99.90;;;;;;5095396;28;20040;-62
2023/06/24 02:42:46;;;;;;;0.63;0.52;;;14.80;99.90;;;;;;5094870;28;19924;-62
2023/06/24 02:45:12;;;;;;;;;;;14.70;99.90;;;;;;5095494;28;20130;-62
2023/06/24 02:47:38;;;;;;;0.40;0.40;;;14.70;99.90;;;;;;5095094;28;19935;-62
2023/06/24 02:50:07;;;;;;;0.22;0.22;;;14.30;99.90;;;;;;5094890;28;20044;-62
2023/06/24 02:52:36;;;;;;;0.30;0.30;;;14.90;99.90;;;;;;5094873;28;20122;-62
2023/06/24 02:55:03;;;;;;;0.47;0.47;;;14.80;99.90;;;;;;5094772;28;20043;-62
2023/06/24 02:57:29;;;;;;;0.30;0.30;;;15.00;99.90;;;;;;5094690;28;20159;-62
2023/06/24 02:59:55;;;;;;;0.45;0.45;;;15.00;99.90;;;;;;5094818;28;20089;-62
2023/06/24 03:02:22;;;;;;;;;;;14.90;99.90;;;;;;5095200;28;20051;-62
2023/06/24 03:04:50;;;;;;;1.17;1.08;;;14.50;99.90;;;;;;5094534;28;19931;-62
2023/06/24 03:07:20;;;;;;;0.50;0.50;;;14.70;99.90;;;;;;5094546;28;20060;-62
2023/06/24 03:09:46;;;;;;;0.68;0.68;;;15.00;99.90;;;;;;5094534;28;20044;-62
2023/06/24 03:12:12;;;;;;;0.60;0.57;;;14.60;99.90;;;;;;5094388;28;20090;-62
2023/06/24 03:14:38;;;;;;;;;;;14.70;99.90;;;;;;5095035;28;20048;-62
2023/06/24 03:17:04;;;;;;;0.20;0.20;;;14.50;99.90;;;;;;5094450;28;19920;-62
2023/06/24 03:19:29;;;;;;;;;;;15.10;99.90;;;;;;5094906;28;20451;-62
2023/06/24 03:21:55;;;;;;;0.82;0.57;;;14.80;99.90;;;;;;5094479;28;19923;-62
2023/06/24 03:24:21;;;;;;;;;;;14.50;99.90;;;;;;5094903;28;20131;-62
2023/06/24 03:26:46;;;;;;;0.47;0.40;;;15.00;99.90;;;;;;5094249;28;20379;-62
2023/06/24 03:29:12;;;;;;;;;;;14.50;99.90;;;;;;5094792;28;20140;-62
2023/06/24 03:31:44;;;;;;;0.57;0.57;;;14.50;99.90;;;;;;5094231;28;19928;-62
2023/06/24 03:34:10;;;;;;;0.20;0.20;;;15.10;99.90;;;;;;5094206;28;20391;-61
2023/06/24 03:36:38;;;;;;;0.52;0.52;;;14.90;99.90;;;;;;5094042;28;20177;-62
2023/06/24 03:39:04;;;;;;;0.43;0.43;;;15.00;99.90;;;;;;5093924;28;20123;-62
2023/06/24 03:41:30;;;;;;;0.47;0.47;;;14.60;99.90;;;;;;5094144;28;20043;-62
2023/06/24 03:43:56;;;;;;;;;;;14.70;99.90;;;;;;5093298;28;20044;-62
2023/06/24 03:46:21;;;;;;;0.28;0.28;;;15.10;99.90;;;;;;5093943;28;19928;-62
2023/06/24 03:48:47;;;;;;;;;;;14.40;99.90;;;;;;5094222;28;20071;-62
2023/06/24 03:51:13;;;;;;;0.70;0.70;;;14.60;99.90;;;;;;5093728;28;19920;-61
2023/06/24 03:53:38;;;;;;;;;;;14.80;99.90;;;;;;5094156;28;20494;-62
2023/06/24 03:56:04;;;;;;;1.20;1.10;;;15.00;99.90;;;;;;5093934;28;19931;-62
2023/06/24 03:58:30;;;;;;;;;;;14.70;99.90;;;;;;5094479;28;20048;-62
2023/06/24 04:00:59;;;;;;;0.40;0.40;;;14.30;99.90;;;;;;5092420;28;20364;-62
2023/06/24 04:03:28;;;;;;;0.25;0.25;;;14.60;99.90;;;;;;5093215;28;20040;-62
2023/06/24 04:05:57;;;;;;;0.35;0.35;;;14.70;99.90;;;;;;5093566;28;20114;-61
2023/06/24 04:08:25;;;;;;;0.57;0.57;;;14.70;99.90;;;;;;5093332;28;20139;-62
2023/06/24 04:10:51;;;;;;;0.50;0.50;;;15.00;99.90;;;;;;5093573;28;20044;-62
2023/06/24 04:13:16;;;;;;;;;;;14.70;99.90;;;;;;5093868;28;20044;-62
2023/06/24 04:15:42;;;;;;;0.50;0.50;;;14.80;99.90;;;;;;5093201;28;19943;-62
2023/06/24 04:18:08;;;;;;;;;;;14.80;99.90;;;;;;5093685;28;20052;-61
2023/06/24 04:20:34;;;;;;;2.33;0.65;;;15.20;99.90;;;;;;5093210;28;19920;-61
2023/06/24 04:23:00;;;;;;;;;;;15.30;99.90;;;;;;5093427;28;20052;-61
2023/06/24 04:25:26;;;;;;;0.95;0.70;;;15.10;99.90;;;;;;5093158;28;19924;-62
2023/06/24 04:27:51;;;;;;;0.75;0.75;;;14.80;99.90;;;;;;5093201;28;20044;-62
2023/06/24 04:30:17;;;;;;;;;;;15.20;99.90;;;;;;5093496;28;20098;-61
2023/06/24 04:32:43;;;;;;;0.50;0.50;;;15.00;99.90;;;;;;5092885;28;19947;-61
2023/06/24 04:35:09;;;;;;;0.63;0.63;;;15.30;99.90;;;;;;5092865;28;20451;-61
2023/06/24 04:37:34;;;;;;;;;;;15.00;99.90;;;;;;5093149;28;20052;-61
2023/06/24 04:40:00;;;;;;;0.88;0.88;;;15.70;99.90;;;;;;5092955;28;20387;-62
2023/06/24 04:42:26;;;;;;;;;;;15.50;99.90;;;;;;5093300;28;20047;-61
2023/06/24 04:44:51;;;;;;;5.70;0.90;;;15.70;99.90;;;;;;5092696;28;19986;-61
2023/06/24 04:47:18;;;;;;;;;;;15.10;99.90;;;;;;5093140;28;20070;-62
2023/06/24 04:49:43;;;;;;;0.75;0.75;;;15.80;99.90;;;;;;5092684;28;19923;-62
2023/06/24 04:52:10;;;;;;;;;;;16.00;99.90;;;;;;5092886;28;20041;-61
2023/06/24 04:54:36;;;;;;;0.82;0.82;;;15.80;99.90;;;;;;5092468;28;20390;-61
2023/06/24 04:57:02;;;;;;;;;;;15.80;99.90;;;;;;5093036;28;20056;-61
2023/06/24 04:59:28;;;;;;;0.50;0.50;;;15.80;99.90;;;;;;5092529;28;19971;-62
2023/06/24 05:01:53;;;;;;;;;;;16.40;99.90;;;;;;5092713;28;20048;-61
2023/06/24 05:04:19;;;;;;;1.05;0.85;;;16.30;99.90;;;;;;5092343;28;19920;-61
2023/06/24 05:06:45;;;;;;;;;;;16.10;99.90;;;;;;5092602;28;20054;-61
2023/06/24 05:09:13;;;;;;;0.88;0.82;;;16.50;99.90;;;;;;5092459;28;19974;-62
2023/06/24 05:11:42;;;;;;;0.38;0.38;;;16.30;99.90;;;;;;5092390;28;20052;-62
2023/06/24 05:14:08;;;;;;;3.28;1.15;;;16.30;99.90;;;;;;5092342;28;20040;-61
2023/06/24 05:16:33;;;;;;;0.55;0.55;;;16.50;99.90;;;;;;5092384;28;20052;-62
2023/06/24 05:18:59;;;;;;;;;;;17.00;99.90;;;;;;5092718;28;20093;-62
2023/06/24 05:21:25;;;;;;;1.15;1.05;;;16.80;99.90;;;;;;5090635;28;19920;-61
2023/06/24 05:23:50;;;;;;;;;;;16.90;99.90;;;;;;5092514;28;20490;-61
2023/06/24 05:26:16;;;;;;;0.68;0.68;;;16.80;99.90;;;;;;5091866;28;19919;-62
2023/06/24 05:28:42;;;;;;;;;;;16.90;99.90;;;;;;5092379;28;20105;-61
2023/06/24 05:31:07;;;;;;;2.30;0.80;;;17.20;99.90;;;;;;5091850;28;19931;-61
2023/06/24 05:33:33;;;;;;;;;;;17.20;99.90;;;;;;5092240;28;20054;-62
2023/06/24 05:35:59;;;;;;;1.00;1.00;;;17.10;99.90;;;;;;5091803;28;20283;-62
2023/06/24 05:38:24;;;;;;;;;;;17.50;99.90;;;;;;5092549;28;20055;-62
2023/06/24 05:40:50;;;;;;;1.20;0.77;;;17.30;99.90;;;;;;5091824;28;19924;-62
2023/06/24 05:43:15;;;;;;;2.55;1.00;;;17.20;99.90;;;;;;5091719;28;20614;-62
2023/06/24 05:45:41;;;;;;;;;;;17.40;99.90;;;;;;5091836;28;20043;-61
2023/06/24 05:48:07;;;;;;;1.05;0.95;;;17.60;99.90;;;;;;5091561;28;19982;-61
2023/06/24 05:50:32;;;;;;;;;;;17.50;99.90;;;;;;5091764;28;20395;-61
2023/06/24 05:52:58;;;;;;;3.60;0.70;;;17.80;99.90;;;;;;5091597;28;20002;-61
2023/06/24 05:55:24;;;;;;;2.08;0.60;;;17.70;99.90;;;;;;5091463;28;20044;-61
2023/06/24 05:57:49;;;;;;;3.70;1.30;;;18.10;99.90;;;;;;5091609;28;20055;-61
2023/06/24 06:00:18;;;;;;;0.65;0.65;;;18.30;99.90;;;;;;5091407;28;20701;-62
2023/06/24 06:02:44;;;;;;;1.33;1.25;;;18.50;99.90;;;;;;5091346;28;20048;-61
2023/06/24 06:05:09;;;;;;;;;;;18.00;99.90;;;;;;5091755;28;20051;-62
2023/06/24 06:07:38;;;;;;;1.77;0.73;;;18.60;99.90;;;;;;5090807;28;19920;-61
2023/06/24 06:10:05;;;;;;;0.80;0.80;;;18.30;99.90;;;;;;5091370;28;20051;-62
2023/06/24 06:12:31;;;;;;;0.85;0.73;;;18.20;99.90;;;;;;5091328;28;20063;-62
2023/06/24 06:14:56;;;;;;;1.00;0.80;;;18.80;99.90;;;;;;5091231;28;20047;-62
2023/06/24 06:17:23;;;;;;;1.33;0.73;;;18.50;99.90;;;;;;5091139;28;20047;-62
2023/06/24 06:19:49;;;;;;;2.05;0.70;;;18.80;99.90;;;;;;5091003;28;20048;-61
2023/06/24 06:22:15;;;;;;;3.47;0.95;;;19.10;99.90;;;;;;5091271;28;20415;-62
2023/06/24 06:24:41;;;;;;;0.75;0.75;;;19.10;99.90;;;;;;5091079;28;20055;-61
2023/06/24 06:27:10;;;;;;;3.03;0.45;;;19.10;99.90;;;;;;5091084;28;20048;-61
2023/06/24 06:29:36;;;;;;;0.30;0.30;;;18.90;99.90;;;;;;5091037;28;20044;-61
2023/06/24 06:32:02;;;;;;;0.52;0.52;;;19.20;99.90;;;;;;5090879;28;20155;-61
2023/06/24 06:34:27;;;;;;;2.75;0.80;;;19.20;99.90;;;;;;5090886;28;20117;-61
2023/06/24 06:36:53;;;;;;;0.98;0.65;;;19.40;99.90;;;;;;5091147;28;20368;-61
2023/06/24 06:39:19;;;;;;;0.52;0.52;;;19.40;99.90;;;;;;5091001;28;20044;-62
2023/06/24 06:41:44;;;;;;;0.80;0.80;;;19.60;99.90;;;;;;5091083;28;20059;-62
2023/06/24 06:44:10;;;;;;;1.38;1.20;;;19.70;99.90;;;;;;5090864;28;20484;-62
2023/06/24 06:46:36;;;;;;;2.55;1.50;;;19.70;99.90;;;;;;5090869;28;20044;-61
2023/06/24 06:49:01;;;;;;;0.73;0.73;;;19.70;99.90;;;;;;5090795;28;20105;-61
2023/06/24 06:51:27;;;;;;;0.50;0.50;;;20.00;99.90;;;;;;5091003;28;20044;-62
2023/06/24 06:53:53;;;;;;;0.43;0.43;;;20.30;99.90;;;;;;5090952;28;20120;-62
2023/06/24 06:56:25;;;;;;;0.82;0.70;;;19.90;99.90;;;;;;5090821;28;20055;-61
2023/06/24 06:58:51;;;;;;;1.25;0.73;;;20.10;99.90;;;;;;5090822;28;20364;-62
2023/06/24 07:01:18;;;;;;;2.03;1.70;;;20.40;99.90;;;;;;5090671;28;20044;-61
2023/06/24 07:03:44;;;;;;;1.00;0.75;;;20.60;99.90;;;;;;5090699;28;20056;-62
2023/06/24 07:06:10;;;;;;;1.15;1.08;;;20.90;99.90;;;;;;5090839;28;20400;-62
2023/06/24 07:08:36;;;;;;;1.20;0.85;;;21.00;99.90;;;;;;5090850;28;20047;-62
2023/06/24 07:11:03;;;;;;;0.85;0.85;;;21.00;99.90;;;;;;5090826;28;20507;-62
2023/06/24 07:13:28;;;;;;;0.60;0.60;;;21.30;99.90;;;;;;5091056;28;20052;-61
2023/06/24 07:15:54;;;;;;;0.63;0.63;;;21.00;99.90;;;;;;5090832;28;20380;-62
2023/06/24 07:18:20;;;;;;;3.63;1.52;;;21.40;99.90;;;;;;5093009;28;20048;-61
2023/06/24 07:20:45;;;;;;;2.50;0.77;;;21.20;99.90;;;;;;5094668;28;20486;-62
2023/06/24 07:23:11;;;;;;;0.93;0.88;;;21.40;99.90;;;;;;5094542;28;20044;-62
2023/06/24 07:25:37;;;;;;;0.80;0.75;;;21.40;99.90;;;;;;5094453;28;20067;-61
2023/06/24 07:28:03;;;;;;;0.50;0.50;;;21.70;99.90;;;;;;5094658;28;20133;-62
2023/06/24 07:30:29;;;;;;;0.63;0.63;;;21.80;99.90;;;;;;5094506;28;20052;-62
2023/06/24 07:32:55;;;;;;;0.38;0.38;;;21.90;99.90;;;;;;5094481;28;20047;-61
2023/06/24 07:35:20;;;;;;;0.90;0.90;;;21.70;99.90;;;;;;5094534;28;20084;-61
2023/06/24 07:37:46;;;;;;;1.08;0.70;;;22.00;99.90;;;;;;5094551;28;20135;-61
2023/06/24 07:40:12;;;;;;;0.20;0.20;;;21.70;99.90;;;;;;5094170;28;20109;-61
2023/06/24 07:42:38;;;;;;;0.65;0.65;;;22.10;99.90;;;;;;5094033;28;20467;-62
2023/06/24 07:45:04;;;;;;;0.43;0.43;;;21.90;99.90;;;;;;5093834;28;20046;-61
2023/06/24 07:47:31;;;;;;;1.00;0.55;;;21.70;99.90;;;;;;5093819;28;20083;-62
2023/06/24 07:49:57;;;;;;;0.90;0.90;;;22.10;99.90;;;;;;5093958;28;20047;-62
2023/06/24 07:52:23;;;;;;;0.95;0.82;;;22.00;99.90;;;;;;5093902;28;20097;-61
2023/06/24 07:54:49;;;;;;;0.98;0.95;;;22.20;99.90;;;;;;5093637;28;20039;-62
2023/06/24 07:57:14;;;;;;;1.13;0.77;;;21.70;99.90;;;;;;5093675;28;20052;-61
2023/06/24 07:59:40;;;;;;;1.02;0.70;;;22.00;99.90;;;;;;5093476;28;20127;-61
2023/06/24 08:02:06;;;;;;;0.40;0.40;;;22.00;99.90;;;;;;5093781;28;20052;-62
2023/06/24 08:04:32;;;;;;;1.52;1.42;;;22.00;99.90;;;;;;5093444;28;20060;-61
2023/06/24 08:06:57;;;;;;;0.73;0.50;;;22.00;99.90;;;;;;5093554;28;20167;-61
2023/06/24 08:09:23;;;;;;;0.68;0.68;;;22.00;99.90;;;;;;5093459;28;20048;-61
2023/06/24 08:11:49;;;;;;;0.85;0.85;;;22.10;99.90;;;;;;5093371;28;20052;-61
2023/06/24 08:14:14;;;;;;;0.85;0.85;;;22.50;99.90;;;;;;5093272;28;20059;-61
2023/06/24 08:16:40;;;;;;;0.40;0.40;;;22.50;99.90;;;;;;5093281;28;20515;-62
2023/06/24 08:19:06;;;;;;;1.10;0.88;;;22.60;99.90;;;;;;5093420;28;20112;-61
2023/06/24 08:21:32;;;;;;;2.42;1.17;;;23.10;99.90;;;;;;5093324;28;20044;-62
2023/06/24 08:23:58;;;;;;;7.90;2.10;;;23.80;99.90;;;;;;5093180;28;20040;-61
2023/06/24 08:26:23;;;;;;;1.20;0.57;;;23.40;99.90;;;;;;5093150;28;20051;-62
2023/06/24 08:28:49;;;;;;;2.45;1.40;;;23.90;99.90;;;;;;5092718;28;20044;-62
2023/06/24 08:31:15;;;;;;;0.55;0.55;;;23.90;99.90;;;;;;5092596;28;20051;-61
2023/06/24 08:33:47;;;;;;;1.27;0.60;;;24.00;99.90;;;;;;5093259;28;20043;-62
2023/06/24 08:36:13;;;;;;;0.63;0.43;;;24.50;99.90;;;;;;5093004;28;20085;-61
2023/06/24 08:38:39;;;;;;;0.57;0.40;;;24.80;99.90;;;;;;5092946;28;20140;-61
2023/06/24 08:41:04;;;;;;;1.45;0.60;;;24.80;99.90;;;;;;5092777;28;20072;-61
2023/06/24 08:43:30;;;;;;;0.85;0.73;;;24.90;99.90;;;;;;5092613;28;20070;-61
2023/06/24 08:45:56;;;;;;;1.40;1.30;;;25.30;99.90;;;;;;5092941;28;20080;-61
2023/06/24 08:48:23;;;;;;;0.75;0.75;;;24.60;99.90;;;;;;5092608;28;20523;-61
2023/06/24 08:50:52;;;;;;;1.83;1.27;;;24.70;99.90;;;;;;5092817;28;20515;-61
2023/06/24 08:53:20;;;;;;;0.68;0.60;;;24.60;99.90;;;;;;5092912;28;20040;-62
2023/06/24 08:55:46;;;;;;;0.70;0.50;;;24.90;99.90;;;;;;5092776;28;20047;-61
2023/06/24 08:58:13;;;;;;;1.13;0.50;;;25.10;99.90;;;;;;5092469;28;20047;-61
2023/06/24 09:00:39;;;;;;;1.52;1.42;;;24.90;99.90;;;;;;5092664;28;20127;-60
2023/06/24 09:03:05;;;;;;;0.80;0.65;;;24.80;99.90;;;;;;5092600;28;20044;-61
2023/06/24 09:05:31;;;;;;;1.73;1.35;;;24.90;99.90;;;;;;5092140;28;20063;-61
2023/06/24 09:07:57;;;;;;;1.30;0.98;;;25.00;99.90;;;;;;5092571;28;20044;-61
2023/06/24 09:10:36;;;;;;;1.02;0.98;;;24.70;99.90;;;;;;5092540;28;20399;-61
2023/06/24 09:13:04;;;;;;;0.70;0.55;;;24.60;99.90;;;;;;5092231;28;20155;-61
2023/06/24 09:15:31;;;;;;;0.95;0.93;;;24.70;99.90;;;;;;5092271;28;20113;-61
2023/06/24 09:17:57;;;;;;;0.55;0.55;;;24.90;99.90;;;;;;5092284;28;20060;-61
2023/06/24 09:20:22;;;;;;;0.68;0.68;;;24.80;99.90;;;;;;5092107;28;20142;-61
2023/06/24 09:22:49;;;;;;;0.75;0.55;;;24.90;99.90;;;;;;5092039;28;20109;-61
2023/06/24 09:25:18;;;;;;;0.85;0.85;;;25.70;99.90;;;;;;5091843;28;20074;-61
2023/06/24 09:27:55;;;;;;;0.90;0.77;;;25.30;99.90;;;;;;5092198;28;20101;-61
2023/06/24 09:30:25;;;;;;;0.65;0.65;;;25.70;99.90;;;;;;5092027;28;20151;-61
2023/06/24 09:32:54;;;;;;;0.90;0.90;;;25.60;99.90;;;;;;5091919;28;20040;-61
2023/06/24 09:35:21;;;;;;;1.55;0.73;;;26.00;99.90;;;;;;5091782;28;20036;-61
2023/06/24 09:37:55;;;;;;;1.10;0.88;;;26.20;99.90;;;;;;5091703;28;20048;-61
2023/06/24 09:40:22;;;;;;;0.52;0.52;;;25.70;99.90;;;;;;5091512;28;20521;-61
2023/06/24 09:42:52;;;;;;;0.73;0.63;;;25.60;99.90;;;;;;5091132;28;20055;-61
2023/06/24 09:45:26;;;;;;;0.52;0.52;;;26.00;99.90;;;;;;5091655;28;20044;-61
2023/06/24 09:47:56;;;;;;;0.88;0.55;;;26.10;99.90;;;;;;5091633;28;20129;-61
2023/06/24 09:50:22;;;;;;;0.55;0.40;;;26.10;99.90;;;;;;5091470;28;20079;-61
2023/06/24 09:52:49;;;;;;;1.33;0.73;;;26.40;99.90;;;;;;5091739;28;20083;-61
2023/06/24 09:55:17;;;;;;;1.35;1.25;;;26.60;99.90;;;;;;5091590;28;20055;-61
2023/06/24 09:57:47;;;;;;;0.52;0.52;;;26.30;99.90;;;;;;5091522;28;20135;-61
2023/06/24 10:00:17;;;;;;;0.55;0.55;;;26.50;99.90;;;;;;5091346;28;20048;-61
2023/06/24 10:02:45;;;;;;;0.20;0.20;;;26.30;99.90;;;;;;5091676;28;20048;-61
2023/06/24 10:05:14;;;;;;;0.73;0.73;;;26.60;99.90;;;;;;5091520;28;20517;-61
2023/06/24 10:07:41;;;;;;;2.47;1.20;;;27.00;99.90;;;;;;5091439;28;20139;-61
2023/06/24 10:10:08;;;;;;;0.63;0.45;;;27.10;99.90;;;;;;5090047;28;20055;-61
2023/06/24 10:12:37;;;;;;;0.80;0.38;;;27.30;99.90;;;;;;5091283;28;20139;-61
2023/06/24 10:15:04;;;;;;;0.80;0.63;;;27.00;99.90;;;;;;5091214;28;20071;-61
2023/06/24 10:17:30;;;;;;;0.82;0.82;;;27.30;99.90;;;;;;5091144;28;20083;-60
2023/06/24 10:19:56;;;;;;;1.17;1.00;;;27.10;99.90;;;;;;5091373;28;20518;-61
2023/06/24 10:22:28;;;;;;;0.55;0.55;;;27.00;99.90;;;;;;5091277;28;20150;-61
2023/06/24 10:24:54;;;;;;;0.10;0.10;;;27.20;99.90;;;;;;5091207;28;20044;-61
2023/06/24 10:27:23;;;;;;;0.88;0.88;;;27.20;99.90;;;;;;5091168;28;20044;-60
2023/06/24 10:29:51;;;;;;;1.33;0.95;;;27.00;99.90;;;;;;5091111;28;20052;-61
2023/06/24 10:32:21;;;;;;;0.60;0.57;;;27.10;99.90;;;;;;5091639;28;20055;-61
2023/06/24 10:34:53;;;;;;;0.45;0.43;;;27.10;99.90;;;;;;5091289;28;20052;-61
2023/06/24 10:37:26;;;;;;;0.40;0.40;;;26.80;99.90;;;;;;5091230;28;20138;-61
2023/06/24 10:39:54;;;;;;;0.57;0.57;;;26.60;99.90;;;;;;5091048;28;20131;-61
2023/06/24 10:42:41;;;;;;;4.00;0.52;;;25.90;99.90;;;;;;5090931;28;20044;-61
2023/06/24 10:45:10;;;;;;;1.50;0.40;;;26.10;99.90;;;;;;5091080;28;20129;-61
2023/06/24 10:47:38;;;;;;;3.70;1.05;;;26.20;99.90;;;;;;5090931;28;20067;-61
2023/06/24 10:50:04;;;;;;;1.02;0.80;;;26.70;99.90;;;;;;5090915;28;20098;-62
2023/06/24 10:52:31;;;;;;;0.57;0.57;;;27.10;99.90;;;;;;5091651;28;20058;-61
2023/06/24 10:54:57;;;;;;;0.22;0.22;;;27.20;99.90;;;;;;5094782;28;20085;-61
2023/06/24 10:57:28;;;;;;;0.77;0.75;;;26.90;99.90;;;;;;5094799;28;20563;-62
2023/06/24 10:59:55;;;;;;;3.28;0.82;;;26.80;99.90;;;;;;5094984;28;20047;-61
2023/06/24 11:02:26;;;;;;;0.45;0.45;;;27.20;99.90;;;;;;5095026;28;20079;-61
2023/06/24 11:04:57;;;;;;;0.63;0.63;;;27.50;99.90;;;;;;5094836;28;20056;-61
2023/06/24 11:07:30;;;;;;;1.65;0.50;;;27.50;99.90;;;;;;5094696;28;20056;-61
2023/06/24 11:09:58;;;;;;;5.38;0.98;;;27.60;99.90;;;;;;5077853;28;20048;-62
2023/06/24 11:12:35;;;;;;;0.43;0.43;;;27.50;99.90;;;;;;5094469;28;20433;-61
2023/06/24 11:15:04;;;;;;;0.47;0.40;;;27.50;99.90;;;;;;5094663;28;20097;-62
2023/06/24 11:17:30;;;;;;;0.20;0.20;;;27.40;99.90;;;;;;5094542;28;20039;-61
2023/06/24 11:19:57;;;;;;;0.50;0.50;;;27.00;99.90;;;;;;5094310;28;20051;-61
2023/06/24 11:22:26;;;;;;;0.50;0.35;;;26.80;99.90;;;;;;5094550;28;20079;-61
2023/06/24 11:24:53;;;;;;;0.77;0.65;;;26.60;99.90;;;;;;5094432;28;20043;-61
2023/06/24 11:27:25;;;;;;;0.22;0.22;;;26.60;99.90;;;;;;5094401;28;20415;-61
2023/06/24 11:29:53;;;;;;;0.77;0.77;;;26.30;99.90;;;;;;5094367;28;20052;-61
2023/06/24 11:32:18;;;;;;;0.77;0.60;;;26.80;99.90;;;;;;5094192;28;20453;-61
2023/06/24 11:34:44;;;;;;;0.32;0.22;;;26.90;99.90;;;;;;5094072;28;20088;-61
2023/06/24 11:37:14;;;;;;;1.75;1.10;;;27.00;99.90;;;;;;5094298;28;20048;-61
2023/06/24 11:39:41;;;;;;;0.20;0.20;;;26.50;99.90;;;;;;5094206;28;20138;-61
2023/06/24 11:42:08;;;;;;;0.63;0.50;;;26.60;99.90;;;;;;5094112;28;20044;-62
2023/06/24 11:44:34;;;;;;;1.08;0.93;;;26.40;99.90;;;;;;5093927;28;20048;-61
2023/06/24 11:47:06;;;;;;;0.40;0.40;;;26.40;99.90;;;;;;5093915;28;20100;-61
2023/06/24 11:49:47;;;;;;;0.25;0.25;;;27.00;99.90;;;;;;5094084;28;20500;-60
2023/06/24 11:52:12;;;;;;;0.25;0.25;;;27.10;99.90;;;;;;5093936;28;20048;-61
2023/06/24 11:54:42;;;;;;;0.30;0.30;;;27.50;99.90;;;;;;5093791;28;20075;-61
2023/06/24 11:57:08;;;;;;;0.30;0.25;;;27.60;99.90;;;;;;5093733;28;20415;-62
2023/06/24 11:59:34;;;;;;;0.30;0.30;;;27.60;99.90;;;;;;5093539;28;20054;-61
2023/06/24 12:02:03;;;;;;;0.30;0.30;;;26.70;99.90;;;;;;5093770;28;20093;-61
2023/06/24 12:04:36;;;;;;;0.40;0.40;;;27.70;99.90;;;;;;5092540;28;20083;-61
2023/06/24 12:07:03;;;;;;;0.38;0.30;;;27.70;99.90;;;;;;5093678;28;20130;-61
2023/06/24 12:09:29;;;;;;;0.05;0.05;;;27.70;99.90;;;;;;5093615;28;20084;-61
2023/06/24 12:11:55;;;;;;;0.10;0.10;;;28.20;99.90;;;;;;5093812;28;20122;-61
2023/06/24 12:14:20;;;;;;;1.50;0.75;;;27.80;99.90;;;;;;5093388;28;20134;-61
2023/06/24 12:16:46;;;;;;;0.30;0.30;;;27.90;99.90;;;;;;5093563;28;20048;-61
2023/06/24 12:19:12;;;;;;;0.28;0.28;;;28.20;99.90;;;;;;5093242;28;20129;-61
2023/06/24 12:21:37;;;;;;;0.30;0.30;;;28.30;99.90;;;;;;5093300;28;20044;-61
2023/06/24 12:24:04;;;;;;;0.50;0.50;;;27.80;99.90;;;;;;5093206;28;20048;-62
2023/06/24 12:26:31;;;;;;;0.40;0.30;;;27.70;99.90;;;;;;5093195;28;20126;-61
2023/06/24 12:28:57;;;;;;;1.08;0.75;;;27.70;99.90;;;;;;5093040;28;20048;-61
2023/06/24 12:31:25;;;;;;;1.52;1.40;;;27.70;99.90;;;;;;5093063;28;20570;-62
2023/06/24 12:33:52;;;;;;;0.73;0.73;;;27.40;99.90;;;;;;5092915;28;20048;-61
2023/06/24 12:36:22;;;;;;;0.47;0.35;;;27.50;99.90;;;;;;5093023;28;20043;-61
2023/06/24 12:38:47;;;;;;;1.17;0.85;;;27.20;99.90;;;;;;5092995;28;20051;-61
2023/06/24 12:41:13;;;;;;;0.40;0.30;;;27.40;99.90;;;;;;5092884;28;20048;-61
2023/06/24 12:43:40;;;;;;;0.35;0.35;;;27.30;99.90;;;;;;5092662;28;20067;-61
2023/06/24 12:46:06;;;;;;;0.20;0.20;;;27.60;99.90;;;;;;5092865;28;20154;-61
2023/06/24 12:48:31;;;;;;;0.70;0.35;;;27.70;99.90;;;;;;5092598;28;20062;-62
2023/06/24 12:50:57;;;;;;;0.32;0.32;;;27.80;99.90;;;;;;5092684;28;20095;-62
2023/06/24 12:53:23;;;;;;;0.75;0.75;;;27.90;99.90;;;;;;5092702;28;20048;-61
2023/06/24 12:55:48;;;;;;;0.43;0.43;;;28.10;99.90;;;;;;5092570;28;20046;-61
2023/06/24 12:58:18;;;;;;;0.75;0.38;;;28.30;99.90;;;;;;5093010;28;20102;-62
2023/06/24 13:00:44;;;;;;;0.30;0.30;;;28.20;99.90;;;;;;5092815;28;20051;-61